createdAt,value
2023-05-05T00:00:22.595Z,73.33
2023-05-05T00:01:22.588Z,73.13
2023-05-05T00:02:22.642Z,73.23
2023-05-05T00:03:22.630Z,73.13
2023-05-05T00:04:22.768Z,72.82
2023-05-05T00:05:22.545Z,72.92
2023-05-05T00:06:22.534Z,73.23
2023-05-05T00:07:22.553Z,73.13
2023-05-05T00:08:22.545Z,73.54
2023-05-05T00:09:22.514Z,73.44
2023-05-05T00:10:22.506Z,73.44
2023-05-05T00:11:22.481Z,73.68
2023-05-05T00:12:22.510Z,73.47
2023-05-05T00:13:22.454Z,73.27
2023-05-05T00:14:22.515Z,72.92
2023-05-05T00:15:22.439Z,72.62
2023-05-05T00:16:22.460Z,72.31
2023-05-05T00:17:22.435Z,72.00
2023-05-05T00:18:22.425Z,72.11
2023-05-05T00:19:22.406Z,72.11
2023-05-05T00:20:22.396Z,72.21
2023-05-05T00:21:22.450Z,72.31
2023-05-05T00:22:22.419Z,72.21
2023-05-05T00:23:22.355Z,72.41
2023-05-05T00:24:22.371Z,72.21
2023-05-05T00:25:22.345Z,72.31
2023-05-05T00:26:22.374Z,72.21
2023-05-05T00:27:22.322Z,72.31
2023-05-05T00:28:22.307Z,72.31
2023-05-05T00:29:22.320Z,72.31
2023-05-05T00:30:22.345Z,72.52
2023-05-05T00:31:22.356Z,72.72
2023-05-05T00:32:22.293Z,73.06
2023-05-05T00:33:22.249Z,73.16
2023-05-05T00:34:22.272Z,72.65
2023-05-05T00:35:22.279Z,72.65
2023-05-05T00:36:22.240Z,72.21
2023-05-05T00:37:22.231Z,72.21
2023-05-05T00:38:22.209Z,71.91
2023-05-05T00:39:22.212Z,71.80
2023-05-05T00:40:22.233Z,71.91
2023-05-05T00:41:22.178Z,71.50
2023-05-05T00:42:22.177Z,71.80
2023-05-05T00:43:22.140Z,71.91
2023-05-05T00:44:22.185Z,72.00
2023-05-05T00:45:22.150Z,71.59
2023-05-05T00:46:22.162Z,71.50
2023-05-05T00:47:22.127Z,71.39
2023-05-05T00:48:22.135Z,70.98
2023-05-05T00:49:22.147Z,71.09
2023-05-05T00:50:22.082Z,71.09
2023-05-05T00:51:22.079Z,70.88
2023-05-05T00:52:22.058Z,70.88
2023-05-05T00:53:22.061Z,71.09
2023-05-05T00:54:22.089Z,70.78
2023-05-05T00:55:22.049Z,70.78
2023-05-05T00:56:22.098Z,71.29
2023-05-05T00:57:22.000Z,70.57
2023-05-05T00:58:21.994Z,70.68
2023-05-05T00:59:22.022Z,70.88
2023-05-05T01:00:21.999Z,70.78
2023-05-05T01:01:21.984Z,70.88
2023-05-05T01:02:21.964Z,70.57
2023-05-05T01:03:22.103Z,70.27
2023-05-05T01:04:21.956Z,70.27
2023-05-05T01:05:21.923Z,70.17
2023-05-05T01:06:21.924Z,70.37
2023-05-05T01:07:21.916Z,70.37
2023-05-05T01:08:21.937Z,70.06
2023-05-05T01:09:21.895Z,69.93
2023-05-05T01:10:22.206Z,70.06
2023-05-05T01:11:21.871Z,70.23
2023-05-05T01:12:21.883Z,69.96
2023-05-05T01:13:21.861Z,70.27
2023-05-05T01:14:21.866Z,70.37
2023-05-05T01:15:21.820Z,70.68
2023-05-05T01:16:21.842Z,70.37
2023-05-05T01:17:21.888Z,70.47
2023-05-05T01:18:21.791Z,70.37
2023-05-05T01:19:21.787Z,69.96
2023-05-05T01:20:21.784Z,70.06
2023-05-05T01:21:21.762Z,70.17
2023-05-05T01:22:21.796Z,69.96
2023-05-05T01:23:21.745Z,70.37
2023-05-05T01:24:21.751Z,70.17
2023-05-05T01:25:21.732Z,70.17
2023-05-05T01:26:21.747Z,69.76
2023-05-05T01:27:21.724Z,69.86
2023-05-05T01:28:21.684Z,69.86
2023-05-05T01:29:21.696Z,69.96
2023-05-05T01:30:21.676Z,70.37
2023-05-05T01:31:21.716Z,70.57
2023-05-05T01:32:21.672Z,70.57
2023-05-05T01:33:21.642Z,70.37
2023-05-05T01:34:21.645Z,70.27
2023-05-05T01:35:21.640Z,70.37
2023-05-05T01:36:21.640Z,70.37
2023-05-05T01:37:21.610Z,70.37
2023-05-05T01:38:21.637Z,70.17
2023-05-05T01:39:21.585Z,70.06
2023-05-05T01:40:21.595Z,69.76
2023-05-05T01:41:21.593Z,69.86
2023-05-05T01:42:21.550Z,69.65
2023-05-05T01:43:21.536Z,69.76
2023-05-05T01:44:21.528Z,69.76
2023-05-05T01:45:21.538Z,69.65
2023-05-05T01:46:21.590Z,69.65
2023-05-05T01:47:21.519Z,69.76
2023-05-05T01:48:21.480Z,69.24
2023-05-05T01:49:21.499Z,69.11
2023-05-05T01:50:21.452Z,68.91
2023-05-05T01:51:21.437Z,68.91
2023-05-05T01:52:21.460Z,69.21
2023-05-05T01:53:21.420Z,69.11
2023-05-05T01:54:21.450Z,68.91
2023-05-05T01:55:21.420Z,69.01
2023-05-05T01:56:21.396Z,69.11
2023-05-05T01:57:21.395Z,69.21
2023-05-05T01:58:21.378Z,68.91
2023-05-05T01:59:21.373Z,69.01
2023-05-05T02:00:21.369Z,68.91
2023-05-05T02:01:21.406Z,68.60
2023-05-05T02:02:21.432Z,68.50
2023-05-05T02:03:21.374Z,68.70
2023-05-05T02:04:21.342Z,69.01
2023-05-05T02:05:21.298Z,68.50
2023-05-05T02:06:21.294Z,68.70
2023-05-05T02:07:21.288Z,68.40
2023-05-05T02:08:21.302Z,67.85
2023-05-05T02:09:21.291Z,67.76
2023-05-05T02:10:21.252Z,67.45
2023-05-05T02:11:21.237Z,67.65
2023-05-05T02:12:21.229Z,67.45
2023-05-05T02:13:21.314Z,67.55
2023-05-05T02:14:21.232Z,67.14
2023-05-05T02:15:21.196Z,67.35
2023-05-05T02:16:21.250Z,67.14
2023-05-05T02:17:21.181Z,66.91
2023-05-05T02:18:21.203Z,67.21
2023-05-05T02:19:21.174Z,67.14
2023-05-05T02:20:21.154Z,66.80
2023-05-05T02:21:21.136Z,67.01
2023-05-05T02:22:21.155Z,66.70
2023-05-05T02:23:21.151Z,66.80
2023-05-05T02:24:21.116Z,66.50
2023-05-05T02:25:21.095Z,66.80
2023-05-05T02:26:21.094Z,66.30
2023-05-05T02:27:21.101Z,66.91
2023-05-05T02:28:21.080Z,66.30
2023-05-05T02:29:21.066Z,66.30
2023-05-05T02:30:21.049Z,66.30
2023-05-05T02:31:21.045Z,65.99
2023-05-05T02:32:21.081Z,66.09
2023-05-05T02:33:21.010Z,66.50
2023-05-05T02:34:21.009Z,66.19
2023-05-05T02:35:21.039Z,66.50
2023-05-05T02:36:21.009Z,66.50
2023-05-05T02:37:20.968Z,66.70
2023-05-05T02:38:20.971Z,66.39
2023-05-05T02:39:20.956Z,66.50
2023-05-05T02:40:20.964Z,66.60
2023-05-05T02:41:20.962Z,66.83
2023-05-05T02:42:20.927Z,67.24
2023-05-05T02:43:21.045Z,66.74
2023-05-05T02:44:20.928Z,66.94
2023-05-05T02:45:20.928Z,67.14
2023-05-05T02:46:20.924Z,66.74
2023-05-05T02:47:20.875Z,66.53
2023-05-05T02:48:20.866Z,66.63
2023-05-05T02:49:20.853Z,66.42
2023-05-05T02:50:20.869Z,66.53
2023-05-05T02:51:20.829Z,66.53
2023-05-05T02:52:20.808Z,66.74
2023-05-05T02:53:20.806Z,66.53
2023-05-05T02:54:20.821Z,66.63
2023-05-05T02:55:20.819Z,66.53
2023-05-05T02:56:20.761Z,67.14
2023-05-05T02:57:20.779Z,66.94
2023-05-05T02:58:20.748Z,66.74
2023-05-05T02:59:20.781Z,67.04
2023-05-05T03:00:20.769Z,66.83
2023-05-05T03:01:20.747Z,67.04
2023-05-05T03:02:20.736Z,67.04
2023-05-05T03:03:20.725Z,66.94
2023-05-05T03:04:20.726Z,67.45
2023-05-05T03:05:20.698Z,67.48
2023-05-05T03:06:20.665Z,67.27
2023-05-05T03:07:20.683Z,67.18
2023-05-05T03:08:20.652Z,67.27
2023-05-05T03:09:20.601Z,66.97
2023-05-05T03:10:20.617Z,67.27
2023-05-05T03:11:20.568Z,66.83
2023-05-05T03:12:20.540Z,66.94
2023-05-05T03:13:20.565Z,66.94
2023-05-05T03:14:20.553Z,67.27
2023-05-05T03:15:20.522Z,67.58
2023-05-05T03:18:28.784Z,67.58
2023-05-05T03:19:29.699Z,67.68
2023-05-05T03:20:29.658Z,67.68
2023-05-05T03:21:29.657Z,67.89
2023-05-05T03:22:29.671Z,67.89
2023-05-05T03:23:29.668Z,67.68
2023-05-05T03:24:29.705Z,67.58
2023-05-05T03:25:29.616Z,67.79
2023-05-05T03:26:29.618Z,68.09
2023-05-05T03:27:29.694Z,68.02
2023-05-05T03:28:29.664Z,68.02
2023-05-05T03:29:29.573Z,67.79
2023-05-05T03:30:29.592Z,67.99
2023-05-05T03:31:29.580Z,68.43
2023-05-05T03:32:29.568Z,68.43
2023-05-05T03:33:29.545Z,68.94
2023-05-05T03:34:29.522Z,68.94
2023-05-05T03:35:29.551Z,69.45
2023-05-05T03:36:29.622Z,69.04
2023-05-05T03:37:29.574Z,69.04
2023-05-05T03:38:29.500Z,69.24
2023-05-05T03:39:29.474Z,69.45
2023-05-05T03:40:40.294Z,69.96
2023-05-05T03:41:29.498Z,70.00
2023-05-05T03:42:29.483Z,70.40
2023-05-05T03:43:29.424Z,70.30
2023-05-05T03:44:29.436Z,70.51
2023-05-05T03:45:29.416Z,70.10
2023-05-05T03:46:29.468Z,69.69
2023-05-05T03:47:29.425Z,70.00
2023-05-05T03:48:29.389Z,70.51
2023-05-05T03:49:29.385Z,70.92
2023-05-05T03:50:29.382Z,71.12
2023-05-05T03:51:29.380Z,70.75
2023-05-05T03:52:29.332Z,71.05
2023-05-05T03:53:29.318Z,70.81
2023-05-05T03:54:29.336Z,71.12
2023-05-05T03:55:29.334Z,71.22
2023-05-05T03:56:29.316Z,71.25
2023-05-05T03:57:29.295Z,71.66
2023-05-05T03:58:29.290Z,71.77
2023-05-05T03:59:29.329Z,71.66
2023-05-05T04:00:29.334Z,72.17
2023-05-05T04:01:29.251Z,72.69
2023-05-05T04:02:29.347Z,72.38
2023-05-05T04:03:29.296Z,72.82
2023-05-05T04:04:29.307Z,73.54
2023-05-05T04:05:29.242Z,73.03
2023-05-05T04:06:29.203Z,73.03
2023-05-05T04:07:29.216Z,72.48
2023-05-05T04:08:29.170Z,72.38
2023-05-05T04:09:29.216Z,71.97
2023-05-05T04:10:29.183Z,71.97
2023-05-05T04:11:29.150Z,71.87
2023-05-05T04:12:29.134Z,71.56
2023-05-05T04:13:29.146Z,71.77
2023-05-05T04:14:29.190Z,71.56
2023-05-05T04:15:29.095Z,71.46
2023-05-05T04:16:29.096Z,71.36
2023-05-05T04:17:29.125Z,71.33
2023-05-05T04:18:29.111Z,71.33
2023-05-05T04:19:29.150Z,71.22
2023-05-05T04:20:29.056Z,71.42
2023-05-05T04:21:29.037Z,71.33
2023-05-05T04:22:29.027Z,71.42
2023-05-05T04:23:29.059Z,71.42
2023-05-05T04:24:29.064Z,71.33
2023-05-05T04:25:28.996Z,71.33
2023-05-05T04:26:29.097Z,71.33
2023-05-05T04:27:29.062Z,71.53
2023-05-05T04:28:29.000Z,71.33
2023-05-05T04:29:29.008Z,71.22
2023-05-05T04:30:29.105Z,71.01
2023-05-05T04:31:29.115Z,70.92
2023-05-05T04:32:29.166Z,71.01
2023-05-05T04:33:29.054Z,71.01
2023-05-05T04:34:28.945Z,70.92
2023-05-05T04:35:28.943Z,70.92
2023-05-05T04:36:29.022Z,70.92
2023-05-05T04:37:28.986Z,71.01
2023-05-05T04:38:28.902Z,70.92
2023-05-05T04:39:28.920Z,71.12
2023-05-05T04:40:28.862Z,71.22
2023-05-05T04:41:30.088Z,71.22
2023-05-05T04:42:28.852Z,71.01
2023-05-05T04:43:28.827Z,70.92
2023-05-05T04:44:28.839Z,70.71
2023-05-05T04:45:28.804Z,70.57
2023-05-05T04:46:28.865Z,70.78
2023-05-05T04:47:28.833Z,70.88
2023-05-05T04:48:28.776Z,70.78
2023-05-05T04:49:28.788Z,70.57
2023-05-05T04:50:28.803Z,70.47
2023-05-05T04:51:28.768Z,70.27
2023-05-05T04:52:28.764Z,70.37
2023-05-05T04:53:28.725Z,70.17
2023-05-05T04:54:29.203Z,70.44
2023-05-05T04:55:28.858Z,70.68
2023-05-05T04:56:28.740Z,70.78
2023-05-05T04:57:28.727Z,70.37
2023-05-05T04:58:28.761Z,70.37
2023-05-05T04:59:28.775Z,70.17
2023-05-05T05:00:33.787Z,70.23
2023-05-05T05:01:29.380Z,70.03
2023-05-05T05:02:29.278Z,70.03
2023-05-05T05:03:28.963Z,70.44
2023-05-05T05:04:29.193Z,70.44
2023-05-05T05:05:28.734Z,70.23
2023-05-05T05:06:28.636Z,70.54
2023-05-05T05:07:28.729Z,70.23
2023-05-05T05:08:28.603Z,70.23
2023-05-05T05:09:28.605Z,70.44
2023-05-05T05:10:28.603Z,70.54
2023-05-05T05:11:28.624Z,70.81
2023-05-05T05:12:28.561Z,69.42
2023-05-05T05:13:28.535Z,67.83
2023-05-05T05:14:28.545Z,66.24
2023-05-05T05:15:28.539Z,64.76
2023-05-05T05:16:28.554Z,63.81
2023-05-05T05:17:28.575Z,62.23
2023-05-05T05:18:28.809Z,61.08
2023-05-05T05:19:28.491Z,60.88
2023-05-05T05:20:28.923Z,60.55
2023-05-05T05:21:28.452Z,60.62
2023-05-05T05:22:28.642Z,59.70
2023-05-05T05:23:28.450Z,59.48
2023-05-05T05:24:28.545Z,59.17
2023-05-05T05:25:28.422Z,60.11
2023-05-05T05:26:34.775Z,60.82
2023-05-05T05:27:29.374Z,60.98
2023-05-05T05:28:28.458Z,62.84
2023-05-05T05:29:32.918Z,63.45
2023-05-05T05:30:29.292Z,63.14
2023-05-05T05:31:29.717Z,63.48
2023-05-05T05:32:28.392Z,63.71
2023-05-05T05:33:29.188Z,62.63
2023-05-05T05:34:28.966Z,62.43
2023-05-05T05:35:35.027Z,64.12
2023-05-05T05:36:30.875Z,64.76
2023-05-05T05:37:30.382Z,65.47
2023-05-05T05:38:28.316Z,64.79
2023-05-05T05:39:29.954Z,64.92
2023-05-05T05:40:28.365Z,65.33
2023-05-05T05:41:28.346Z,65.09
2023-05-05T05:42:30.749Z,65.30
2023-05-05T05:43:32.629Z,65.26
2023-05-05T05:44:28.232Z,64.45
2023-05-05T05:45:28.349Z,64.35
2023-05-05T05:46:28.464Z,64.12
2023-05-05T05:47:28.329Z,62.84
2023-05-05T05:48:28.651Z,61.33
2023-05-05T05:49:28.199Z,59.83
2023-05-05T05:50:28.160Z,58.61
2023-05-05T05:51:28.135Z,59.01
2023-05-05T05:52:28.164Z,58.89
2023-05-05T05:53:28.272Z,59.32
2023-05-05T05:54:29.106Z,58.28
2023-05-05T05:55:28.143Z,58.00
2023-05-05T05:56:28.230Z,60.06
2023-05-05T05:57:28.135Z,59.99
2023-05-05T05:58:28.630Z,60.82
2023-05-05T05:59:28.116Z,61.23
2023-05-05T06:00:28.052Z,61.66
2023-05-05T06:01:28.152Z,62.41
2023-05-05T06:02:28.236Z,61.65
2023-05-05T06:03:28.893Z,60.75
2023-05-05T06:04:31.084Z,60.02
2023-05-05T06:05:29.431Z,58.47
2023-05-05T06:06:32.782Z,58.34
2023-05-05T06:07:28.170Z,58.87
2023-05-05T06:08:28.518Z,57.34
2023-05-05T06:09:28.262Z,57.89
2023-05-05T06:10:28.584Z,59.47
2023-05-05T06:11:28.284Z,60.46
2023-05-05T06:12:28.029Z,61.91
2023-05-05T06:13:28.123Z,61.80
2023-05-05T06:14:29.852Z,61.71
2023-05-05T06:15:28.314Z,62.49
2023-05-05T06:16:28.836Z,60.66
2023-05-05T06:17:27.871Z,62.29
2023-05-05T06:18:27.919Z,64.41
2023-05-05T06:19:27.878Z,62.89
2023-05-05T06:20:27.905Z,62.72
2023-05-05T06:21:27.876Z,63.02
2023-05-05T06:22:27.825Z,63.23
2023-05-05T06:23:28.362Z,63.56
2023-05-05T06:24:27.880Z,63.56
2023-05-05T06:25:27.942Z,64.98
2023-05-05T06:26:28.354Z,67.31
2023-05-05T06:27:27.967Z,67.92
2023-05-05T06:28:28.344Z,69.13
2023-05-05T06:29:28.765Z,67.11
2023-05-05T06:30:27.857Z,66.19
2023-05-05T06:31:28.538Z,66.70
2023-05-05T06:32:28.447Z,68.05
2023-05-05T06:33:27.787Z,67.75
2023-05-05T06:34:27.932Z,66.26
2023-05-05T06:35:48.264Z,67.44
2023-05-05T06:36:27.851Z,66.94
2023-05-05T06:37:29.303Z,66.56
2023-05-05T06:38:29.314Z,66.74
2023-05-05T06:39:29.908Z,69.07
2023-05-05T06:40:29.609Z,67.00
2023-05-05T06:41:27.641Z,67.68
2023-05-05T06:42:28.514Z,64.64
2023-05-05T06:43:27.652Z,64.85
2023-05-05T06:44:27.743Z,64.85
2023-05-05T06:45:27.686Z,65.56
2023-05-05T06:46:27.668Z,63.81
2023-05-05T06:47:27.708Z,64.12
2023-05-05T06:48:28.070Z,64.42
2023-05-05T06:49:27.703Z,66.72
2023-05-05T06:50:28.263Z,66.72
2023-05-05T06:51:29.864Z,67.32
2023-05-05T06:52:27.559Z,65.03
2023-05-05T06:53:27.548Z,66.95
2023-05-05T06:54:28.869Z,68.57
2023-05-05T06:55:27.810Z,67.59
2023-05-05T06:56:27.444Z,69.74
2023-05-05T06:57:27.543Z,71.70
2023-05-05T06:58:28.281Z,71.00
2023-05-05T06:59:27.439Z,73.56
2023-05-05T07:12:23.548Z,99.99
2023-05-05T07:17:15.392Z,99.99
2023-05-05T07:18:15.040Z,99.99
2023-05-05T07:19:15.822Z,99.99
2023-05-05T07:20:13.604Z,99.99
2023-05-05T07:24:14.620Z,99.99
2023-05-05T07:25:15.790Z,99.99
2023-05-05T07:26:16.313Z,99.99
2023-05-05T07:33:26.437Z,99.99
2023-05-05T07:34:27.110Z,99.99
2023-05-05T07:35:27.264Z,99.99
2023-05-05T07:36:26.661Z,99.99
2023-05-05T07:37:26.707Z,99.99
2023-05-05T07:38:26.830Z,99.99
2023-05-05T07:39:26.859Z,99.99
2023-05-05T07:40:26.856Z,99.99
2023-05-05T07:41:26.817Z,99.99
2023-05-05T07:42:26.780Z,99.99
2023-05-05T07:43:26.676Z,99.99
2023-05-05T07:44:26.736Z,99.99
2023-05-05T07:45:26.698Z,99.99
2023-05-05T07:46:26.657Z,99.99
2023-05-05T07:47:26.692Z,99.99
2023-05-05T07:48:26.572Z,99.99
2023-05-05T07:49:26.873Z,99.99
2023-05-05T07:50:26.757Z,99.99
2023-05-05T07:51:27.008Z,99.99
2023-05-05T07:52:43.724Z,99.99
2023-05-05T07:53:26.557Z,99.99
2023-05-05T07:54:26.905Z,99.99
2023-05-05T07:55:26.481Z,99.99
2023-05-05T07:56:26.558Z,99.99
2023-05-05T07:57:26.451Z,99.99
2023-05-05T07:58:27.619Z,99.99
2023-05-05T07:59:26.541Z,99.99
2023-05-05T08:00:26.643Z,99.99
2023-05-05T08:01:27.056Z,99.99
2023-05-05T08:02:26.527Z,99.99
2023-05-05T08:03:27.070Z,99.99
2023-05-05T08:04:26.513Z,99.99
2023-05-05T08:05:26.786Z,99.99
2023-05-05T08:06:26.756Z,99.99
2023-05-05T08:07:26.832Z,99.99
2023-05-05T08:08:26.805Z,99.99
2023-05-05T08:09:27.663Z,99.99
2023-05-05T08:10:26.339Z,99.99
2023-05-05T08:12:27.116Z,99.99
2023-05-05T08:13:26.770Z,99.99
2023-05-05T08:14:29.478Z,99.99
2023-05-05T08:15:30.129Z,97.14
2023-05-05T08:16:28.511Z,99.57
2023-05-05T08:17:31.387Z,99.99
2023-05-05T08:18:27.415Z,99.99
2023-05-05T08:19:29.231Z,99.27
2023-05-05T08:20:27.472Z,97.80
2023-05-05T08:21:32.175Z,99.92
2023-05-05T08:22:26.920Z,99.11
2023-05-05T08:23:26.625Z,99.46
2023-05-05T08:24:26.754Z,99.99
2023-05-05T08:25:26.366Z,99.99
2023-05-05T08:26:26.491Z,98.46
2023-05-05T08:27:26.275Z,99.07
2023-05-05T08:28:26.349Z,99.99
2023-05-05T08:29:26.258Z,99.99
2023-05-05T08:30:26.718Z,99.47
2023-05-05T08:31:26.522Z,96.89
2023-05-05T08:32:27.847Z,98.97
2023-05-05T08:33:26.186Z,99.58
2023-05-05T08:34:26.092Z,93.77
2023-05-05T08:35:26.397Z,98.52
2023-05-05T08:36:26.067Z,95.81
2023-05-05T08:37:26.136Z,94.25
2023-05-05T08:38:26.114Z,93.70
2023-05-05T08:39:26.040Z,93.19
2023-05-05T08:40:26.061Z,90.68
2023-05-05T08:41:26.054Z,89.67
2023-05-05T08:42:36.386Z,91.94
2023-05-05T08:43:25.969Z,91.90
2023-05-05T08:44:26.011Z,86.66
2023-05-05T08:45:26.592Z,90.73
2023-05-05T08:46:26.152Z,89.12
2023-05-05T08:47:29.279Z,90.03
2023-05-05T08:48:26.268Z,83.62
2023-05-05T08:49:26.090Z,89.93
2023-05-05T08:50:25.959Z,84.91
2023-05-05T08:51:26.007Z,81.05
2023-05-05T08:52:27.181Z,85.22
2023-05-05T08:53:31.656Z,88.54
2023-05-05T08:54:26.508Z,77.50
2023-05-05T08:55:28.084Z,81.87
2023-05-05T08:56:26.106Z,81.07
2023-05-05T08:57:26.044Z,87.05
2023-05-05T08:58:27.657Z,92.79
2023-05-05T08:59:26.218Z,93.35
2023-05-05T09:00:26.572Z,92.30
2023-05-05T09:01:28.668Z,87.93
2023-05-05T09:02:27.143Z,84.97
2023-05-05T09:03:26.942Z,90.00
2023-05-05T09:04:26.529Z,81.09
2023-05-05T09:05:25.777Z,81.19
2023-05-05T09:06:29.664Z,76.93
2023-05-05T09:07:26.850Z,82.22
2023-05-05T09:08:26.932Z,78.79
2023-05-05T09:09:26.803Z,80.32
2023-05-05T09:10:25.974Z,76.78
2023-05-05T09:11:34.281Z,72.27
2023-05-05T09:12:25.809Z,70.29
2023-05-05T09:13:26.727Z,71.43
2023-05-05T09:14:25.690Z,82.32
2023-05-05T09:15:25.615Z,81.04
2023-05-05T09:16:25.634Z,84.37
2023-05-05T09:17:34.014Z,75.26
2023-05-05T09:18:25.579Z,80.43
2023-05-05T09:19:25.535Z,70.89
2023-05-05T09:20:25.530Z,75.46
2023-05-05T09:21:25.535Z,74.05
2023-05-05T09:22:25.535Z,70.12
2023-05-05T09:23:25.485Z,74.37
2023-05-05T09:24:25.504Z,73.10
2023-05-05T09:25:25.466Z,77.86
2023-05-05T09:26:25.467Z,72.96
2023-05-05T09:27:25.582Z,69.49
2023-05-05T09:28:25.456Z,68.08
2023-05-05T09:29:25.433Z,73.60
2023-05-05T09:30:25.421Z,74.80
2023-05-05T09:31:25.563Z,74.73
2023-05-05T09:32:25.555Z,69.13
2023-05-05T09:33:25.394Z,72.72
2023-05-05T09:34:25.608Z,66.50
2023-05-05T09:35:25.379Z,68.66
2023-05-05T09:36:25.425Z,65.14
2023-05-05T09:37:25.362Z,69.53
2023-05-05T09:38:25.358Z,63.16
2023-05-05T09:39:25.370Z,58.86
2023-05-05T09:40:25.347Z,62.60
2023-05-05T09:41:25.372Z,61.91
2023-05-05T09:42:25.348Z,60.42
2023-05-05T09:43:25.321Z,63.52
2023-05-05T09:44:25.296Z,65.57
2023-05-05T09:45:25.339Z,63.28
2023-05-05T09:46:25.356Z,63.75
2023-05-05T09:47:29.491Z,67.73
2023-05-05T09:48:25.275Z,62.45
2023-05-05T09:49:25.241Z,64.18
2023-05-05T09:50:25.267Z,64.69
2023-05-05T09:51:25.205Z,59.66
2023-05-05T09:52:25.222Z,61.25
2023-05-05T09:53:25.212Z,60.64
2023-05-05T09:54:25.273Z,59.08
2023-05-05T09:55:25.228Z,61.57
2023-05-05T09:56:25.155Z,60.05
2023-05-05T09:57:25.144Z,57.90
2023-05-05T09:58:25.194Z,62.87
2023-05-05T09:59:25.164Z,60.26
2023-05-05T10:00:25.150Z,57.72
2023-05-05T10:01:25.117Z,52.96
2023-05-05T10:02:25.139Z,54.28
2023-05-05T10:03:25.108Z,56.71
2023-05-05T10:04:25.188Z,58.20
2023-05-05T10:05:25.212Z,56.54
2023-05-05T10:06:25.057Z,60.82
2023-05-05T10:07:25.101Z,58.80
2023-05-05T10:08:25.036Z,64.76
2023-05-05T10:09:25.050Z,62.65
2023-05-05T10:10:26.053Z,57.13
2023-05-05T10:11:24.998Z,55.89
2023-05-05T10:12:24.988Z,57.53
2023-05-05T10:13:24.997Z,61.64
2023-05-05T10:14:25.026Z,57.75
2023-05-05T10:15:24.963Z,59.34
2023-05-05T10:16:26.299Z,60.63
2023-05-05T10:17:24.969Z,59.12
2023-05-05T10:18:25.058Z,62.61
2023-05-05T10:19:24.915Z,62.15
2023-05-05T10:20:24.925Z,62.18
2023-05-05T10:21:24.893Z,65.27
2023-05-05T10:22:24.888Z,61.99
2023-05-05T10:23:24.947Z,63.62
2023-05-05T10:24:24.894Z,64.56
2023-05-05T10:25:24.868Z,60.16
2023-05-05T10:26:24.852Z,54.42
2023-05-05T10:27:24.879Z,57.74
2023-05-05T10:28:24.868Z,48.65
2023-05-05T10:29:24.846Z,54.47
2023-05-05T10:30:24.822Z,54.47
2023-05-05T10:31:26.411Z,54.02
2023-05-05T10:32:51.176Z,56.37
2023-05-05T10:34:24.838Z,56.46
2023-05-05T10:35:24.770Z,48.38
2023-05-05T10:36:24.762Z,50.66
2023-05-05T10:37:24.785Z,55.26
2023-05-05T10:38:26.641Z,49.91
2023-05-05T10:39:24.738Z,48.43
2023-05-05T10:40:24.736Z,52.81
2023-05-05T10:41:24.736Z,48.85
2023-05-05T10:42:24.746Z,53.40
2023-05-05T10:43:24.717Z,56.38
2023-05-05T10:44:24.721Z,52.95
2023-05-05T10:45:24.807Z,45.06
2023-05-05T10:46:24.773Z,46.76
2023-05-05T10:47:24.732Z,44.81
2023-05-05T10:48:24.684Z,49.15
2023-05-05T10:49:24.648Z,50.04
2023-05-05T10:50:24.642Z,49.90
2023-05-05T10:51:38.360Z,50.63
2023-05-05T10:52:24.637Z,44.90
2023-05-05T10:53:24.615Z,43.52
2023-05-05T10:54:24.662Z,47.38
2023-05-05T10:55:24.638Z,47.34
2023-05-05T10:56:24.618Z,44.38
2023-05-05T10:57:24.559Z,44.09
2023-05-05T10:58:24.557Z,45.71
2023-05-05T10:59:24.595Z,45.07
2023-05-05T11:00:24.594Z,48.30
2023-05-05T11:01:24.660Z,46.31
2023-05-05T11:02:24.594Z,45.05
2023-05-05T11:03:24.639Z,45.17
2023-05-05T11:04:24.513Z,42.22
2023-05-05T11:05:24.550Z,43.38
2023-05-05T11:06:24.489Z,43.99
2023-05-05T11:07:24.481Z,42.71
2023-05-05T11:08:24.821Z,43.52
2023-05-05T11:09:25.450Z,45.59
2023-05-05T11:10:24.597Z,45.39
2023-05-05T11:11:24.432Z,45.17
2023-05-05T11:12:24.527Z,46.09
2023-05-05T11:13:24.591Z,44.49
2023-05-05T11:14:24.461Z,43.04
2023-05-05T11:15:24.468Z,47.31
2023-05-05T11:16:24.477Z,44.52
2023-05-05T11:17:24.453Z,41.33
2023-05-05T11:18:24.397Z,40.72
2023-05-05T11:19:24.377Z,35.54
2023-05-05T11:20:24.361Z,41.24
2023-05-05T11:21:24.435Z,42.00
2023-05-05T11:22:24.330Z,43.56
2023-05-05T11:23:24.363Z,44.89
2023-05-05T11:24:24.495Z,44.16
2023-05-05T11:25:24.294Z,45.59
2023-05-05T11:26:24.378Z,47.19
2023-05-05T11:27:24.329Z,48.23
2023-05-05T11:28:24.301Z,48.25
2023-05-05T11:29:24.270Z,51.47
2023-05-05T11:30:24.309Z,50.81
2023-05-05T11:31:24.320Z,51.52
2023-05-05T11:32:24.267Z,51.32
2023-05-05T11:33:24.244Z,50.75
2023-05-05T11:34:24.229Z,50.33
2023-05-05T11:35:24.191Z,51.54
2023-05-05T11:36:24.185Z,52.56
2023-05-05T11:37:24.219Z,53.69
2023-05-05T11:38:24.279Z,54.01
2023-05-05T11:39:24.238Z,51.65
2023-05-05T11:40:24.235Z,51.15
2023-05-05T11:41:24.135Z,52.72
2023-05-05T11:42:24.134Z,52.76
2023-05-05T11:43:24.120Z,50.23
2023-05-05T11:44:24.127Z,49.71
2023-05-05T11:45:24.106Z,48.65
2023-05-05T11:46:24.172Z,46.80
2023-05-05T11:47:24.116Z,48.16
2023-05-05T11:48:24.089Z,44.10
2023-05-05T11:49:24.084Z,43.96
2023-05-05T11:50:24.084Z,42.34
2023-05-05T11:51:24.049Z,46.86
2023-05-05T11:52:24.051Z,47.25
2023-05-05T11:53:24.091Z,42.20
2023-05-05T11:54:24.010Z,45.87
2023-05-05T11:55:24.022Z,44.91
2023-05-05T11:56:24.055Z,39.68
2023-05-05T11:57:23.991Z,40.07
2023-05-05T11:58:24.012Z,44.39
2023-05-05T11:59:23.976Z,46.61
2023-05-05T12:00:23.942Z,44.73
2023-05-05T12:01:23.942Z,47.88
2023-05-05T12:02:24.047Z,45.06
2023-05-05T12:03:24.111Z,50.18
2023-05-05T12:04:23.975Z,46.67
2023-05-05T12:05:23.920Z,47.06
2023-05-05T12:06:23.889Z,46.59
2023-05-05T12:07:23.904Z,51.30
2023-05-05T12:08:23.854Z,50.03
2023-05-05T12:09:23.871Z,47.97
2023-05-05T12:10:23.859Z,47.72
2023-05-05T12:11:23.838Z,46.80
2023-05-05T12:12:23.829Z,49.08
2023-05-05T12:13:24.080Z,46.05
2023-05-05T12:14:23.818Z,48.16
2023-05-05T12:15:23.874Z,48.11
2023-05-05T12:16:23.791Z,49.03
2023-05-05T12:17:23.840Z,50.82
2023-05-05T12:18:23.762Z,54.98
2023-05-05T12:19:23.823Z,50.08
2023-05-05T12:20:23.749Z,51.97
2023-05-05T12:21:23.749Z,51.65
2023-05-05T12:22:23.759Z,52.14
2023-05-05T12:23:23.725Z,50.43
2023-05-05T12:24:23.766Z,48.52
2023-05-05T12:25:23.699Z,49.49
2023-05-05T12:26:23.688Z,51.25
2023-05-05T12:27:23.665Z,46.88
2023-05-05T12:28:23.696Z,44.62
2023-05-05T12:29:23.675Z,45.65
2023-05-05T12:30:23.716Z,48.24
2023-05-05T12:31:23.664Z,54.78
2023-05-05T12:32:23.696Z,55.74
2023-05-05T12:33:23.658Z,50.08
2023-05-05T12:34:23.609Z,53.63
2023-05-05T12:35:23.615Z,47.10
2023-05-05T12:36:23.580Z,48.71
2023-05-05T12:37:23.584Z,49.11
2023-05-05T12:38:23.590Z,50.35
2023-05-05T12:39:23.560Z,51.37
2023-05-05T12:40:23.541Z,54.98
2023-05-05T12:41:23.574Z,57.97
2023-05-05T12:42:23.545Z,52.72
2023-05-05T12:43:23.519Z,52.62
2023-05-05T12:44:23.522Z,51.45
2023-05-05T12:45:23.498Z,52.76
2023-05-05T12:46:23.594Z,56.85
2023-05-05T12:47:23.510Z,56.48
2023-05-05T12:48:23.528Z,56.11
2023-05-05T12:49:23.467Z,57.51
2023-05-05T12:50:23.467Z,53.94
2023-05-05T12:51:23.660Z,56.74
2023-05-05T12:52:23.454Z,58.81
2023-05-05T12:53:23.433Z,56.71
2023-05-05T12:54:23.425Z,57.01
2023-05-05T12:55:23.433Z,57.34
2023-05-05T12:56:23.421Z,57.93
2023-05-05T12:57:23.418Z,58.04
2023-05-05T12:58:23.384Z,57.74
2023-05-05T12:59:23.404Z,58.84
2023-05-05T13:00:23.357Z,59.14
2023-05-05T13:01:23.508Z,60.74
2023-05-05T13:02:23.383Z,61.54
2023-05-05T13:03:23.497Z,61.36
2023-05-05T13:04:23.396Z,59.89
2023-05-05T13:05:23.322Z,60.99
2023-05-05T13:06:23.295Z,61.76
2023-05-05T13:07:23.283Z,61.07
2023-05-05T13:08:23.278Z,60.59
2023-05-05T13:09:23.253Z,60.10
2023-05-05T13:10:23.273Z,60.32
2023-05-05T13:11:23.239Z,61.72
2023-05-05T13:12:23.909Z,62.62
2023-05-05T13:13:23.205Z,62.75
2023-05-05T13:14:23.188Z,63.75
2023-05-05T13:15:23.201Z,61.75
2023-05-05T13:16:23.201Z,63.06
2023-05-05T13:17:23.181Z,62.45
2023-05-05T13:18:23.231Z,60.85
2023-05-05T13:19:23.150Z,61.15
2023-05-05T13:20:23.174Z,61.55
2023-05-05T13:21:23.109Z,60.75